📊 Raw Sensor Data

Showing records 44326 to 44350 of 85,035 total

ID Distance (ft) Battery V Battery A Int Temp (°F) Int Humid (%) Ext Temp (°F) Solar V RSSI SNR Time Stamp
40722 15.4 3.88 -5 54 43 56 0.10 -68 8 05/16/2025 01:30 AM
40721 15.4 3.88 -5 53 43 55 0.00 -69 8 05/16/2025 01:15 AM
40720 15.4 3.89 -5 53 43 54 0.00 -68 8 05/16/2025 01:00 AM
40719 15.4 3.96 -5 52 44 53 0.00 -68 8 05/16/2025 12:45 AM
40718 15.4 3.89 -5 53 45 53 0.00 -69 8 05/16/2025 12:30 AM
40717 15.4 3.96 -5 54 45 54 0.10 -69 8 05/16/2025 12:15 AM
40716 15.4 3.89 -35 55 45 55 0.00 -68 8 05/16/2025 12:00 AM
40715 15.5 3.88 -5 57 44 56 0.00 -68 8 05/15/2025 11:45 PM
40714 15.4 3.88 -5 58 44 59 0.00 -67 8 05/15/2025 11:30 PM
40713 15.4 3.88 -5 58 44 60 0.00 -68 8 05/15/2025 11:15 PM
40712 15.4 3.88 -5 59 45 60 0.10 -68 8 05/15/2025 11:00 PM
40711 15.4 3.89 -5 60 45 60 0.00 -68 8 05/15/2025 10:45 PM
40710 15.4 3.89 -5 60 45 61 0.00 -68 8 05/15/2025 10:30 PM
40709 15.4 3.88 -5 61 45 62 0.00 -67 8 05/15/2025 10:15 PM
40708 15.4 3.88 -5 62 46 63 0.00 -68 8 05/15/2025 10:00 PM
40707 15.4 3.88 -5 63 46 64 0.00 -67 8 05/15/2025 09:45 PM
40706 15.4 3.89 -5 64 47 64 0.00 -67 8 05/15/2025 09:30 PM
40705 15.5 3.90 -5 65 48 65 0.10 -70 5 05/15/2025 09:15 PM
40704 15.5 3.97 -5 66 49 66 0.10 -68 8 05/15/2025 09:00 PM
40703 15.5 3.97 -5 67 50 67 0.00 -69 8 05/15/2025 08:45 PM
40702 15.4 3.90 -5 68 51 68 0.10 -68 7 05/15/2025 08:30 PM
40701 15.5 3.90 -9 70 53 69 2.00 -69 7 05/15/2025 08:15 PM
40700 15.5 3.90 -38 74 54 71 4.40 -69 9 05/15/2025 08:00 PM
40699 15.5 3.92 0 78 52 74 4.50 -67 8 05/15/2025 07:45 PM
40698 15.6 4.01 8 83 50 78 4.60 -69 8 05/15/2025 07:30 PM